首页
METAR-TAF:

METAR-TAF

机场 :

雅典, 喬治亞, 美国

纬度: 33-57-03N, 经度: 083-19-41W, 海拔: 246米

当前天气观测

该预报发布于42分钟前的10:51 UTC
风速3节,风向西
温度 4°C
湿度 70%
气压 1018 hPa
能見度: 16.1公里
天空无云

METAR: KAHN 181051Z AUTO 27003KT 10SM CLR 04/M01 A3007 RMK AO2 SLP184 T00391006

时间: 06:33 (11:33 UTC)

预报

该预报发布于5小时和54分钟前的05:39 UTC
预报有效从18日的 06点(UTC)到 19日的 06点(UTC)
风速4节,风向西转西北
能見度: 10公里
少量云层高于25000英尺
从 18日的 0900点(UTC)
风速节,风向
能見度: 10公里
少量云层高于25000英尺
从 18日的 1500点(UTC)
风速4节,风向东北
能見度: 10公里
少量云层高于25000英尺
从 18日的 1700点(UTC)
风速4节,风向
能見度: 10公里
天空无云
从 18日的 2300点(UTC)
风速节,风向
能見度: 10公里
少量云层高于25000英尺

TAF: KAHN 180539Z 1806/1906 30004KT P6SM FEW250 FM180900 00000KT P6SM FEW250 FM181500 04004KT P6SM FEW250 FM181700 08004KT P6SM SKC FM182300 00000KT P6SM FEW250

超过4000个机场的气象观测和天气预报(METAR&TAF报告)。

可查询的气象台以黄色和红色小点在地图上表示。

将鼠标移到小点上方,可查看气象台名称。

然后点击查看天气观测和预报。

如需切换地图:点击带黑十字的绿色按钮放大地图;点击带横线的绿色按钮缩小地图;或者点击绿色箭头查看邻近地区的地图。


METAR-TAF: